createdAt,value
2024-04-16T00:02:21.677Z,0.97
2024-04-16T00:04:51.643Z,0.70
2024-04-16T00:07:19.129Z,0.90
2024-04-16T00:09:52.239Z,0.50
2024-04-16T00:12:19.422Z,0.60
2024-04-16T00:15:27.783Z,0.53
2024-04-16T00:17:55.931Z,0.60
2024-04-16T00:20:26.014Z,0.40
2024-04-16T00:22:53.307Z,0.52
2024-04-16T00:25:23.226Z,0.60
2024-04-16T00:27:50.512Z,0.47
2024-04-16T00:30:20.361Z,0.50
2024-04-16T00:32:50.209Z,0.98
2024-04-16T00:35:20.220Z,0.88
2024-04-16T00:37:47.288Z,0.98
2024-04-16T00:40:17.072Z,1.10
2024-04-16T00:42:44.408Z,0.60
2024-04-16T00:45:16.620Z,0.60
2024-04-16T00:47:45.454Z,0.80
2024-04-16T00:50:18.189Z,0.80
2024-04-16T00:52:45.781Z,0.50
2024-04-16T00:55:16.195Z,0.85
2024-04-16T00:57:43.570Z,0.70
2024-04-16T01:00:13.642Z,0.70
2024-04-16T01:02:40.751Z,0.85
2024-04-16T01:05:10.729Z,0.67
2024-04-16T01:07:40.953Z,0.70
2024-04-16T01:10:10.816Z,0.70
2024-04-16T01:12:41.490Z,0.70
2024-04-16T01:15:11.391Z,1.10
2024-04-16T01:17:39.182Z,0.60
2024-04-16T01:20:09.515Z,0.90
2024-04-16T01:22:36.757Z,0.65
2024-04-16T01:25:10.643Z,0.85
2024-04-16T01:27:37.928Z,0.82
2024-04-16T01:30:07.999Z,1.00
2024-04-16T01:32:35.235Z,0.77
2024-04-16T01:35:05.184Z,0.90
2024-04-16T01:37:32.411Z,1.20
2024-04-16T01:40:02.498Z,1.00
2024-04-16T01:42:32.400Z,1.47
2024-04-16T01:45:02.187Z,0.82
2024-04-16T01:47:29.413Z,1.05
2024-04-16T01:49:59.503Z,1.20
2024-04-16T01:52:26.823Z,1.20
2024-04-16T01:54:56.812Z,1.03
2024-04-16T01:57:23.913Z,0.82
2024-04-16T01:59:56.359Z,1.35
2024-04-16T02:02:23.832Z,1.35
2024-04-16T02:04:53.640Z,1.30
2024-04-16T02:07:21.360Z,1.03
2024-04-16T02:09:51.340Z,0.90
2024-04-16T02:12:18.653Z,0.90
2024-04-16T02:14:48.508Z,0.90
2024-04-16T02:17:19.561Z,1.40
2024-04-16T02:19:49.598Z,0.83
2024-04-16T02:22:16.917Z,0.90
2024-04-16T02:24:46.835Z,1.02
2024-04-16T02:27:14.052Z,0.85
2024-04-16T02:29:43.993Z,0.55
2024-04-16T02:32:11.115Z,1.33
2024-04-16T02:34:43.725Z,0.68
2024-04-16T02:37:11.060Z,0.90
2024-04-16T02:39:41.006Z,0.80
2024-04-16T02:42:08.195Z,1.00
2024-04-16T02:44:38.024Z,1.50
2024-04-16T02:47:06.454Z,1.00
2024-04-16T02:49:36.500Z,1.10
2024-04-16T02:52:06.325Z,1.02
2024-04-16T02:54:42.302Z,1.13
2024-04-16T02:57:21.624Z,1.00
2024-04-16T02:59:51.657Z,0.60
2024-04-16T03:02:18.737Z,0.82
2024-04-16T03:04:49.951Z,0.60
2024-04-16T03:07:19.787Z,0.85
2024-04-16T03:09:49.686Z,0.57
2024-04-16T03:12:16.742Z,0.63
2024-04-16T03:14:46.716Z,0.80
2024-04-16T03:17:14.213Z,0.88
2024-04-16T03:19:44.109Z,0.88
2024-04-16T03:22:11.270Z,1.20
2024-04-16T03:24:43.693Z,1.13
2024-04-16T03:27:10.814Z,0.70
2024-04-16T03:29:40.706Z,0.93
2024-04-16T03:32:07.752Z,0.60
2024-04-16T03:34:37.623Z,0.70
2024-04-16T03:37:07.563Z,0.70
2024-04-16T03:39:37.612Z,0.77
2024-04-16T03:42:10.027Z,0.70
2024-04-16T03:44:39.883Z,0.85
2024-04-16T03:47:07.287Z,0.80
2024-04-16T03:49:38.131Z,1.00
2024-04-16T03:52:05.582Z,0.70
2024-04-16T03:54:35.317Z,0.77
2024-04-16T03:57:02.553Z,1.15
2024-04-16T04:00:01.036Z,1.10
2024-04-16T04:02:28.341Z,1.10
2024-04-16T04:04:58.355Z,1.27
2024-04-16T04:07:25.803Z,1.20
2024-04-16T04:09:55.619Z,1.00
2024-04-16T04:12:22.810Z,1.00
2024-04-16T04:14:55.455Z,0.90
2024-04-16T04:17:22.524Z,1.15
2024-04-16T04:19:52.197Z,1.00
2024-04-16T04:22:19.443Z,1.63
2024-04-16T04:24:49.207Z,1.70
2024-04-16T04:27:16.407Z,1.90
2024-04-16T04:29:46.251Z,2.10
2024-04-16T04:32:17.452Z,1.90
2024-04-16T04:34:47.312Z,1.73
2024-04-16T04:37:14.411Z,1.63
2024-04-16T04:39:44.269Z,2.13
2024-04-16T04:42:11.475Z,1.60
2024-04-16T04:44:41.486Z,1.77
2024-04-16T04:47:08.827Z,1.75
2024-04-16T04:49:43.009Z,1.40
2024-04-16T04:52:12.798Z,1.95
2024-04-16T04:54:40.086Z,1.70
2024-04-16T04:57:10.429Z,2.08
2024-04-16T04:59:37.543Z,1.70
2024-04-16T05:02:10.620Z,1.63
2024-04-16T05:04:40.520Z,1.25
2024-04-16T05:07:10.548Z,1.65
2024-04-16T05:09:37.970Z,1.10
2024-04-16T05:12:07.958Z,1.63
2024-04-16T05:14:35.318Z,1.57
2024-04-16T05:17:05.140Z,1.50
2024-04-16T05:19:35.081Z,1.98
2024-04-16T05:22:04.998Z,1.60
2024-04-16T05:24:34.875Z,1.73
2024-04-16T05:27:02.365Z,1.43
2024-04-16T05:29:32.239Z,1.50
2024-04-16T05:31:59.443Z,1.50
2024-04-16T05:34:29.203Z,1.80
2024-04-16T05:36:56.597Z,1.83
2024-04-16T05:39:28.948Z,1.50
2024-04-16T05:41:56.067Z,1.60
2024-04-16T05:44:25.728Z,1.40
2024-04-16T05:46:53.002Z,1.77
2024-04-16T05:49:22.784Z,1.73
2024-04-16T05:51:50.023Z,2.00
2024-04-16T05:54:20.504Z,1.83
2024-04-16T05:56:50.348Z,1.90
2024-04-16T05:59:23.270Z,1.88
2024-04-16T06:01:50.491Z,2.05
2024-04-16T06:04:20.365Z,2.43
2024-04-16T06:06:49.573Z,1.80
2024-04-16T06:09:19.460Z,2.10
2024-04-16T06:11:46.623Z,2.40
2024-04-16T06:14:19.028Z,1.73
2024-04-16T06:16:46.268Z,1.90
2024-04-16T06:19:16.079Z,1.55
2024-04-16T06:21:45.713Z,2.05
2024-04-16T06:24:15.497Z,2.30
2024-04-16T06:26:42.655Z,1.77
2024-04-16T06:29:12.464Z,1.30
2024-04-16T06:31:42.359Z,2.15
2024-04-16T06:34:12.292Z,1.75
2024-04-16T06:36:42.486Z,1.85
2024-04-16T06:39:13.731Z,2.70
2024-04-16T06:41:41.596Z,2.00
2024-04-16T06:44:11.253Z,2.33
2024-04-16T06:46:38.743Z,1.77
2024-04-16T06:49:17.439Z,2.08
2024-04-16T06:51:47.098Z,1.90
2024-04-16T06:54:16.864Z,1.60
2024-04-16T06:56:44.184Z,1.65
2024-04-16T06:59:15.565Z,1.83
2024-04-16T07:01:47.827Z,1.42
2024-04-16T07:04:17.731Z,1.27
2024-04-16T07:06:47.593Z,1.00
2024-04-16T07:09:14.724Z,1.00
2024-04-16T07:11:45.083Z,1.30
2024-04-16T07:14:12.287Z,1.48
2024-04-16T07:16:42.072Z,1.00
2024-04-16T07:19:09.405Z,1.03
2024-04-16T07:21:41.851Z,1.10
2024-04-16T07:24:08.966Z,0.80
2024-04-16T07:26:38.964Z,1.08
2024-04-16T07:29:06.473Z,0.77
2024-04-16T07:31:42.278Z,0.83
2024-04-16T07:34:12.650Z,1.42
2024-04-16T07:36:45.036Z,0.70
2024-04-16T07:39:12.314Z,0.85
2024-04-16T07:41:42.245Z,0.80
2024-04-16T07:44:09.431Z,1.47
2024-04-16T07:46:39.401Z,0.93
2024-04-16T07:49:06.693Z,0.57
2024-04-16T07:51:36.723Z,0.68
2024-04-16T07:54:06.460Z,0.73
2024-04-16T07:56:36.239Z,0.67
2024-04-16T07:59:03.447Z,0.85
2024-04-16T08:01:33.285Z,0.50
2024-04-16T08:04:00.398Z,1.00
2024-04-16T08:06:30.188Z,0.88
2024-04-16T08:08:57.735Z,1.10
2024-04-16T08:11:30.331Z,0.90
2024-04-16T08:13:57.505Z,0.80
2024-04-16T08:16:27.397Z,1.10
2024-04-16T08:18:54.769Z,1.00
2024-04-16T08:21:25.952Z,0.93
2024-04-16T08:23:53.928Z,0.75
2024-04-16T08:26:23.665Z,1.30
2024-04-16T08:28:53.511Z,0.75
2024-04-16T08:31:23.549Z,0.80
2024-04-16T08:33:50.889Z,0.57
2024-04-16T08:36:20.629Z,0.60
2024-04-16T08:38:47.759Z,0.60
2024-04-16T08:41:17.467Z,0.77
2024-04-16T08:43:46.845Z,0.70
2024-04-16T08:46:19.485Z,0.40
2024-04-16T08:48:47.013Z,0.60
2024-04-16T08:51:18.114Z,0.50
2024-04-16T08:53:46.191Z,1.00
2024-04-16T08:56:15.881Z,0.60
2024-04-16T08:58:44.548Z,1.00
2024-04-16T09:01:14.585Z,1.08
2024-04-16T09:03:46.733Z,0.90
2024-04-16T09:06:16.784Z,0.90
2024-04-16T09:08:44.981Z,0.85
2024-04-16T09:11:16.150Z,0.90
2024-04-16T09:13:44.743Z,1.48
2024-04-16T09:16:14.819Z,1.02
2024-04-16T09:18:44.660Z,0.55
2024-04-16T09:21:14.314Z,0.80
2024-04-16T09:23:42.563Z,1.00
2024-04-16T09:26:15.948Z,0.90
2024-04-16T09:28:47.698Z,1.13
2024-04-16T09:31:19.219Z,1.05
2024-04-16T09:33:51.970Z,1.33
2024-04-16T09:36:21.817Z,1.10
2024-04-16T09:38:49.877Z,0.95
2024-04-16T09:41:19.600Z,1.10
2024-04-16T09:43:47.420Z,0.90
2024-04-16T09:46:17.215Z,1.13
2024-04-16T09:48:44.601Z,1.37
2024-04-16T09:51:17.866Z,0.85
2024-04-16T09:53:46.693Z,0.90
2024-04-16T09:56:17.846Z,1.13
2024-04-16T09:58:51.217Z,1.40
2024-04-16T10:01:23.245Z,1.00
2024-04-16T10:03:52.608Z,1.00
2024-04-16T10:06:25.000Z,0.95
2024-04-16T10:08:52.367Z,0.70
2024-04-16T10:11:29.634Z,1.20
2024-04-16T10:13:59.429Z,1.00
2024-04-16T10:16:29.923Z,0.70
2024-04-16T10:18:57.610Z,1.00
2024-04-16T10:21:30.419Z,0.95
2024-04-16T10:24:00.908Z,0.77
2024-04-16T10:26:30.736Z,1.10
2024-04-16T10:28:58.191Z,1.20
2024-04-16T10:31:34.804Z,1.00
2024-04-16T10:34:02.206Z,0.80
2024-04-16T10:36:36.950Z,0.70
2024-04-16T10:39:11.162Z,0.60
2024-04-16T10:41:41.043Z,0.63
2024-04-16T10:44:08.154Z,0.75
2024-04-16T10:46:38.482Z,0.88
2024-04-16T10:49:06.624Z,0.70
2024-04-16T10:51:38.962Z,0.70
2024-04-16T10:54:06.819Z,0.90
2024-04-16T10:56:36.760Z,0.73
2024-04-16T10:59:07.108Z,1.10
2024-04-16T11:01:37.222Z,1.30
2024-04-16T11:04:08.218Z,1.03
2024-04-16T11:06:40.821Z,1.20
2024-04-16T11:09:08.177Z,0.80
2024-04-16T11:11:39.658Z,1.15
2024-04-16T11:14:08.326Z,1.20
2024-04-16T11:16:38.448Z,1.40
2024-04-16T11:19:05.708Z,1.20
2024-04-16T11:21:35.695Z,1.27
2024-04-16T11:24:06.640Z,1.40
2024-04-16T11:26:36.446Z,1.30
2024-04-16T11:29:03.797Z,1.13
2024-04-16T11:31:33.816Z,1.20
2024-04-16T11:34:01.022Z,1.15
2024-04-16T11:36:30.995Z,1.33
2024-04-16T11:38:58.110Z,1.50
2024-04-16T11:41:32.509Z,1.30
2024-04-16T11:43:59.572Z,2.15
2024-04-16T11:46:29.447Z,1.50
2024-04-16T11:48:56.725Z,1.30
2024-04-16T11:51:26.834Z,1.38
2024-04-16T11:53:54.018Z,1.67
2024-04-16T11:56:23.839Z,1.67
2024-04-16T11:58:53.603Z,1.58
2024-04-16T12:01:23.767Z,1.40
2024-04-16T12:03:50.987Z,1.70
2024-04-16T12:06:20.720Z,1.30
2024-04-16T12:08:47.934Z,1.80
2024-04-16T12:11:17.847Z,1.80
2024-04-16T12:13:45.095Z,1.55
2024-04-16T12:16:17.428Z,2.03
2024-04-16T12:18:44.589Z,1.77
2024-04-16T12:21:14.389Z,1.80
2024-04-16T12:23:41.493Z,1.88
2024-04-16T12:26:11.125Z,1.90
2024-04-16T12:28:38.303Z,2.30
2024-04-16T12:31:08.228Z,2.20
2024-04-16T12:33:38.126Z,2.45
2024-04-16T12:36:09.555Z,2.33
2024-04-16T12:38:36.681Z,2.35
2024-04-16T12:41:06.514Z,2.85
2024-04-16T12:43:33.711Z,1.90
2024-04-16T12:46:04.334Z,1.95
2024-04-16T12:48:32.037Z,1.98
2024-04-16T12:51:04.684Z,1.50
2024-04-16T12:53:32.378Z,1.45
2024-04-16T12:56:03.214Z,1.70
2024-04-16T12:58:30.407Z,1.75
2024-04-16T13:01:00.293Z,1.98
2024-04-16T13:03:27.646Z,1.98
2024-04-16T13:05:57.544Z,2.53
2024-04-16T13:08:27.246Z,2.37
2024-04-16T13:10:57.587Z,2.47
2024-04-16T13:13:25.404Z,2.22
2024-04-16T13:15:55.762Z,2.30
2024-04-16T13:18:23.035Z,2.97
2024-04-16T13:20:56.830Z,2.20
2024-04-16T13:23:26.799Z,2.20
2024-04-16T13:26:00.206Z,2.50
2024-04-16T13:28:28.682Z,2.00
2024-04-16T13:30:59.210Z,1.60
2024-04-16T13:33:26.596Z,2.43
2024-04-16T13:35:56.772Z,1.70
2024-04-16T13:38:26.487Z,1.77
2024-04-16T13:40:56.672Z,2.03
2024-04-16T13:43:23.924Z,2.25
2024-04-16T13:45:53.754Z,1.97
2024-04-16T13:48:23.678Z,2.00
2024-04-16T13:50:54.657Z,3.10
2024-04-16T13:53:30.256Z,1.98
2024-04-16T13:55:59.048Z,1.33
2024-04-16T13:58:28.837Z,1.83
2024-04-16T14:00:56.360Z,2.38
2024-04-16T14:03:26.328Z,2.17
2024-04-16T14:05:53.591Z,1.60
2024-04-16T14:08:23.408Z,2.13
2024-04-16T14:10:53.534Z,1.60
2024-04-16T14:13:23.369Z,1.60
2024-04-16T14:15:50.520Z,1.40
2024-04-16T14:18:20.408Z,1.30
2024-04-16T14:20:47.696Z,1.75
2024-04-16T14:23:17.428Z,1.30
2024-04-16T14:25:44.740Z,2.25
2024-04-16T14:28:17.147Z,1.70
2024-04-16T14:30:44.358Z,1.55
2024-04-16T14:33:14.310Z,1.70
2024-04-16T14:35:41.463Z,1.60
2024-04-16T14:38:11.086Z,1.55
2024-04-16T14:40:41.285Z,1.50
2024-04-16T14:43:11.071Z,1.20
2024-04-16T14:45:45.199Z,1.35
2024-04-16T14:48:14.953Z,1.40
2024-04-16T14:50:43.904Z,1.27
2024-04-16T14:53:14.758Z,1.20
2024-04-16T14:55:44.153Z,1.85
2024-04-16T14:58:14.085Z,1.30
2024-04-16T15:00:41.560Z,2.00
2024-04-16T15:03:14.043Z,1.52
2024-04-16T15:05:41.720Z,1.65
2024-04-16T15:08:12.115Z,1.67
2024-04-16T15:10:39.280Z,1.48
2024-04-16T15:13:09.662Z,2.27
2024-04-16T15:15:36.922Z,1.60
2024-04-16T15:18:06.831Z,1.45
2024-04-16T15:20:36.955Z,1.40
2024-04-16T15:23:08.688Z,2.13
2024-04-16T15:28:29.095Z,1.40
2024-04-16T15:30:56.281Z,1.50
2024-04-16T15:33:26.129Z,1.90
2024-04-16T15:36:02.801Z,1.45
2024-04-16T15:38:47.334Z,1.73
2024-04-16T15:41:17.418Z,1.80
2024-04-16T15:43:47.417Z,1.50
2024-04-16T15:46:14.993Z,1.75
2024-04-16T15:48:44.971Z,1.60
2024-04-16T15:51:14.720Z,2.97
2024-04-16T15:53:44.522Z,2.03
2024-04-16T15:56:11.737Z,1.77
2024-04-16T15:58:46.243Z,1.60
2024-04-16T16:01:13.609Z,2.22
2024-04-16T16:03:43.700Z,1.67
2024-04-16T16:06:11.211Z,1.70
2024-04-16T16:08:43.664Z,1.95
2024-04-16T16:11:10.935Z,1.67
2024-04-16T16:13:41.470Z,1.48
2024-04-16T16:16:12.448Z,1.90
2024-04-16T16:18:42.321Z,1.50
2024-04-16T16:21:10.163Z,1.73
2024-04-16T16:23:40.169Z,1.95
2024-04-16T16:26:09.984Z,1.50
2024-04-16T16:28:40.026Z,1.67
2024-04-16T16:31:07.220Z,1.80
2024-04-16T16:33:39.139Z,1.85
2024-04-16T16:36:06.787Z,1.45
2024-04-16T16:38:37.598Z,1.75
2024-04-16T16:41:04.877Z,1.50
2024-04-16T16:43:37.591Z,1.90
2024-04-16T16:46:05.054Z,1.95
2024-04-16T16:48:34.844Z,2.80
2024-04-16T16:51:02.026Z,2.00
2024-04-16T16:53:31.996Z,1.97
2024-04-16T16:56:01.198Z,1.50
2024-04-16T16:58:31.005Z,1.38
2024-04-16T17:01:01.073Z,1.50
2024-04-16T17:03:30.930Z,1.63
2024-04-16T17:05:58.083Z,2.30
2024-04-16T17:08:27.915Z,1.38
2024-04-16T17:10:56.421Z,2.17
2024-04-16T17:13:26.215Z,2.05
2024-04-16T17:15:56.352Z,2.17
2024-04-16T17:18:28.870Z,1.70
2024-04-16T17:20:56.677Z,1.30
2024-04-16T17:23:26.948Z,1.48
2024-04-16T17:25:55.869Z,1.77
2024-04-16T17:28:25.887Z,1.85
2024-04-16T17:30:53.948Z,1.30
2024-04-16T17:33:23.911Z,1.60
2024-04-16T17:35:53.795Z,1.42
2024-04-16T17:38:23.560Z,1.40
2024-04-16T17:40:51.735Z,1.60
2024-04-16T17:43:21.725Z,1.10
2024-04-16T17:45:48.994Z,1.90
2024-04-16T17:48:19.817Z,1.40
2024-04-16T17:50:47.620Z,1.40
2024-04-16T17:53:20.375Z,1.48
2024-04-16T17:55:47.850Z,1.20
2024-04-16T17:58:17.979Z,1.40
2024-04-16T18:00:48.989Z,1.38
2024-04-16T18:03:19.110Z,1.23
2024-04-16T18:05:46.527Z,1.67
2024-04-16T18:08:16.214Z,1.30
2024-04-16T18:10:47.555Z,1.20
2024-04-16T18:13:17.763Z,1.50
2024-04-16T18:15:45.017Z,1.52
2024-04-16T18:18:17.634Z,1.20
2024-04-16T18:20:45.668Z,1.30
2024-04-16T18:23:17.560Z,1.42
2024-04-16T18:25:48.470Z,1.50
2024-04-16T18:28:18.529Z,1.48
2024-04-16T18:30:46.065Z,1.40
2024-04-16T18:33:16.209Z,1.47
2024-04-16T18:35:44.517Z,1.95
2024-04-16T18:38:17.362Z,1.98
2024-04-16T18:40:44.657Z,1.50
2024-04-16T18:43:17.587Z,1.65
2024-04-16T18:45:46.264Z,2.30
2024-04-16T18:48:16.664Z,1.38
2024-04-16T18:50:47.368Z,2.17
2024-04-16T18:53:17.383Z,1.45
2024-04-16T18:55:48.650Z,1.63
2024-04-16T18:58:21.154Z,1.90
2024-04-16T19:00:48.690Z,1.40
2024-04-16T19:03:19.039Z,1.77
2024-04-16T19:05:47.702Z,1.88
2024-04-16T19:08:19.073Z,1.60
2024-04-16T19:10:46.817Z,1.67
2024-04-16T19:13:16.658Z,2.45
2024-04-16T19:15:54.997Z,1.85
2024-04-16T19:18:25.350Z,1.90
2024-04-16T19:20:52.939Z,1.70
2024-04-16T19:23:25.482Z,1.37
2024-04-16T19:25:53.018Z,1.60
2024-04-16T19:28:26.859Z,1.65
2024-04-16T19:30:58.859Z,1.35
2024-04-16T19:33:28.921Z,1.52
2024-04-16T19:35:56.364Z,1.50
2024-04-16T19:38:26.329Z,1.60
2024-04-16T19:40:54.335Z,1.33
2024-04-16T19:43:24.460Z,1.70
2024-04-16T19:45:52.367Z,1.48
2024-04-16T19:48:25.227Z,1.97
2024-04-16T19:50:52.853Z,1.45
2024-04-16T19:53:22.998Z,1.70
2024-04-16T19:55:57.514Z,2.10
2024-04-16T19:58:27.423Z,2.65
2024-04-16T20:00:56.174Z,2.00
2024-04-16T20:03:28.681Z,1.70
2024-04-16T20:05:58.922Z,1.55
2024-04-16T20:08:28.543Z,1.33
2024-04-16T20:10:55.765Z,1.20
2024-04-16T20:13:25.649Z,1.33
2024-04-16T20:15:52.699Z,1.50
2024-04-16T20:18:23.378Z,1.67
2024-04-16T20:21:01.863Z,1.35
2024-04-16T20:23:31.935Z,1.77
2024-04-16T20:25:59.779Z,1.80
2024-04-16T20:28:29.843Z,1.40
2024-04-16T20:30:57.021Z,1.67
2024-04-16T20:33:26.999Z,1.10
2024-04-16T20:35:54.427Z,1.27
2024-04-16T20:38:26.845Z,1.60
2024-04-16T20:40:54.207Z,1.88
2024-04-16T20:43:24.545Z,1.23
2024-04-16T20:45:52.037Z,1.45
2024-04-16T20:48:22.441Z,1.10
2024-04-16T20:50:55.860Z,1.50
2024-04-16T20:53:35.368Z,1.30
2024-04-16T20:56:02.425Z,1.48
2024-04-16T20:58:32.135Z,1.30
2024-04-16T21:00:59.444Z,1.55
2024-04-16T21:03:29.314Z,1.03
2024-04-16T21:05:57.102Z,1.20
2024-04-16T21:08:27.145Z,1.33
2024-04-16T21:10:59.565Z,1.88
2024-04-16T21:13:26.806Z,1.00
2024-04-16T21:15:57.103Z,0.87
2024-04-16T21:18:24.288Z,1.20
2024-04-16T21:20:54.200Z,1.10
2024-04-16T21:23:22.324Z,1.10
2024-04-16T21:25:52.355Z,1.98
2024-04-16T21:28:22.334Z,1.40
2024-04-16T21:30:52.014Z,1.45
2024-04-16T21:33:19.169Z,1.27
2024-04-16T21:35:50.102Z,1.52
2024-04-16T21:38:17.221Z,1.77
2024-04-16T21:40:47.106Z,1.20
2024-04-16T21:43:14.218Z,1.25
2024-04-16T21:45:47.763Z,1.25
2024-04-16T21:48:14.943Z,1.60
2024-04-16T21:50:44.690Z,1.52
2024-04-16T21:53:11.765Z,1.20
2024-04-16T21:55:42.274Z,1.25
2024-04-16T21:58:09.404Z,1.40
2024-04-16T22:00:39.412Z,1.10
2024-04-16T22:03:09.216Z,1.13
2024-04-16T22:05:39.051Z,1.30
2024-04-16T22:08:57.246Z,1.10
2024-04-16T22:11:27.032Z,1.23
2024-04-16T22:13:54.419Z,1.50
2024-04-16T22:16:58.840Z,1.58
2024-04-16T22:20:22.211Z,1.47
2024-04-16T22:23:47.879Z,1.40
2024-04-16T22:26:17.647Z,1.50
2024-04-16T22:28:47.445Z,1.58
2024-04-16T22:31:14.483Z,1.70
2024-04-16T22:33:44.266Z,1.33
2024-04-16T22:36:11.363Z,1.30
2024-04-16T22:38:41.382Z,1.38
2024-04-16T22:41:08.593Z,1.75
2024-04-16T22:43:40.973Z,1.25
2024-04-16T22:46:11.633Z,1.53
2024-04-16T22:48:41.573Z,1.10
2024-04-16T22:51:08.716Z,1.40
2024-04-16T22:53:38.450Z,1.63
2024-04-16T22:56:05.994Z,1.20
2024-04-16T22:58:36.355Z,1.10
2024-04-16T23:01:06.127Z,1.20
2024-04-16T23:03:36.081Z,1.42
2024-04-16T23:06:03.212Z,1.00
2024-04-16T23:08:32.818Z,1.48
2024-04-16T23:11:02.226Z,1.40
2024-04-16T23:13:32.216Z,1.73
2024-04-16T23:15:59.278Z,1.83
2024-04-16T23:18:31.729Z,1.40
2024-04-16T23:20:58.797Z,1.85
2024-04-16T23:23:28.496Z,1.57
2024-04-16T23:25:55.749Z,1.30
2024-04-16T23:28:25.508Z,1.20
2024-04-16T23:30:52.772Z,1.08
2024-04-16T23:33:22.635Z,1.20
2024-04-16T23:35:52.459Z,1.00
2024-04-16T23:38:22.303Z,1.63
2024-04-16T23:40:49.458Z,0.90
2024-04-16T23:43:19.277Z,0.82
2024-04-16T23:45:46.475Z,1.08
2024-04-16T23:48:16.221Z,1.60
2024-04-16T23:50:43.371Z,0.98
2024-04-16T23:53:15.717Z,1.10
2024-04-16T23:55:42.902Z,1.00
2024-04-16T23:58:12.621Z,1.30
